Time;durP1;ratioP1;P1;durP2;ratioP2;P2;SDS_P1;SDS_P2;PMS_P1;PMS_P2;Temp;Humidity;BMP_temperature;BMP_pressure;BME280_temperature;BME280_humidity;BME280_pressure;Samples;Min_cycle;Max_cycle;Signal;HPM_P1;HPM_P2
2022/08/06 00:02:30;;;;;;;3.10;1.95;;;21.20;53.10;;;23.84;39.14;98192.91;5090444;28;20309;-51
2022/08/06 00:05:01;;;;;;;2.40;1.90;;;21.30;53.50;;;23.78;38.96;98187.31;5088691;28;20253;-52
2022/08/06 00:07:31;;;;;;;3.42;1.98;;;21.20;53.30;;;23.78;39.28;98195.47;5087473;28;20342;-52
2022/08/06 00:10:14;;;;;;;2.33;2.08;;;21.20;53.50;;;23.78;39.47;98192.75;5089456;28;20376;-50
2022/08/06 00:12:42;;;;;;;3.03;2.08;;;21.20;53.50;;;23.78;39.19;98205.53;5088221;28;20056;-50
2022/08/06 00:15:12;;;;;;;4.20;2.50;;;21.20;53.60;;;23.75;39.53;98201.38;5088685;28;20048;-52
2022/08/06 00:17:42;;;;;;;2.95;2.10;;;21.20;54.00;;;23.75;39.51;98200.56;5089002;28;20066;-51
2022/08/06 00:20:15;;;;;;;3.78;2.15;;;21.20;54.10;;;23.74;39.30;98198.88;5088959;28;20059;-51
2022/08/06 00:22:53;;;;;;;2.60;2.40;;;21.20;53.50;;;23.73;39.06;98195.34;5086806;28;20055;-53
2022/08/06 00:25:21;;;;;;;3.08;2.25;;;21.20;53.40;;;23.72;39.48;98195.56;5088324;28;20052;-52
2022/08/06 00:27:48;;;;;;;2.63;2.10;;;21.10;53.80;;;23.71;39.27;98194.75;5088739;28;20288;-51
2022/08/06 00:30:19;;;;;;;2.50;2.30;;;21.20;53.20;;;23.68;39.43;98197.09;5089353;28;20056;-51
2022/08/06 00:32:50;;;;;;;3.42;1.70;;;21.10;53.60;;;23.67;39.62;98195.44;5087406;28;20234;-55
2022/08/06 00:35:20;;;;;;;2.30;2.10;;;21.10;53.90;;;23.67;39.28;98198.16;5089213;28;20048;-51
2022/08/06 00:37:56;;;;;;;2.83;1.90;;;21.10;53.10;;;23.59;38.88;98204.72;5089062;28;20242;-50
2022/08/06 00:40:30;;;;;;;2.45;2.20;;;21.00;53.20;;;23.54;38.50;98201.91;5089290;28;20040;-49
2022/08/06 00:43:02;;;;;;;2.50;1.92;;;21.00;51.70;;;23.50;38.77;98200.72;5089162;28;20058;-52
2022/08/06 00:45:36;;;;;;;2.10;1.90;;;20.90;52.40;;;23.55;38.82;98204.41;5090600;28;20058;-50
2022/08/06 00:48:13;;;;;;;3.85;1.75;;;21.00;52.40;;;23.54;38.84;98202.72;5088031;28;20055;-53
2022/08/06 00:51:01;;;;;;;2.05;1.85;;;21.00;52.30;;;23.56;38.68;98205.22;5089571;28;20051;-53
2022/08/06 00:53:30;;;;;;;2.53;2.10;;;21.00;52.50;;;23.53;38.95;98209.19;5089891;28;20043;-53
2022/08/06 00:56:01;;;;;;;3.65;2.58;;;21.00;52.50;;;23.55;38.93;98209.84;5089628;28;20052;-53
2022/08/06 00:58:38;;;;;;;2.33;1.98;;;21.00;52.60;;;23.55;38.81;98204.41;5087910;28;20044;-53
2022/08/06 01:01:10;;;;;;;2.05;1.85;;;21.00;52.60;;;23.56;38.76;98214.19;5087482;28;20069;-52
2022/08/06 01:03:45;;;;;;;2.72;1.88;;;21.00;53.20;;;23.55;38.54;98212.56;5085772;28;20246;-52
2022/08/06 01:06:21;;;;;;;6.70;3.22;;;21.00;52.30;;;23.56;38.96;98218.81;5087906;28;20060;-51
2022/08/06 01:09:09;;;;;;;2.83;2.00;;;21.00;52.50;;;23.54;38.82;98218.22;5088374;28;20060;-52
2022/08/06 01:11:38;;;;;;;2.55;1.85;;;20.90;52.90;;;23.50;39.10;98219.72;5088681;28;20106;-53
2022/08/06 01:14:07;;;;;;;3.38;1.73;;;20.90;52.80;;;23.50;39.08;98225.16;5088261;28;20262;-53
2022/08/06 01:17:02;;;;;;;2.40;2.20;;;21.00;53.60;;;23.51;38.85;98235.78;5088735;28;20048;-49
2022/08/06 01:20:23;;;;;;;2.83;2.00;;;20.90;52.50;;;23.48;38.71;98230.81;5087298;28;20063;-50
2022/08/06 01:24:08;;;;;;;3.20;2.28;;;20.80;52.00;;;23.41;38.87;98223.81;5087775;28;20338;-52
2022/08/06 01:26:59;;;;;;;1.88;1.73;;;20.70;52.30;;;23.32;39.17;98223.28;5088130;28;20043;-50
2022/08/06 01:29:39;;;;;;;2.75;1.70;;;20.70;52.90;;;23.25;39.23;98219.88;5088263;28;20246;-48
2022/08/06 01:32:28;;;;;;;2.65;2.00;;;20.70;53.20;;;23.22;39.08;98226.56;5086480;28;20062;-52
2022/08/06 01:35:07;;;;;;;4.88;2.20;;;20.70;53.10;;;23.12;39.25;98220.84;5086400;28;20048;-53
2022/08/06 01:38:11;;;;;;;2.50;2.20;;;20.50;53.10;;;23.10;39.30;98215.63;5087560;28;20051;-50
2022/08/06 01:40:42;;;;;;;2.40;2.05;;;20.50;53.50;;;23.07;39.60;98229.69;5087332;28;20044;-54
2022/08/06 01:43:16;;;;;;;2.60;1.90;;;20.40;53.70;;;22.99;39.63;98233.50;5087464;28;20044;-49
2022/08/06 01:46:05;;;;;;;5.35;2.13;;;20.40;53.80;;;23.01;39.49;98235.97;5087568;28;20062;-53
2022/08/06 01:48:37;;;;;;;2.22;2.03;;;20.40;53.90;;;22.97;39.81;98227.47;5087278;28;20048;-52
2022/08/06 01:51:07;;;;;;;2.75;2.53;;;20.40;53.70;;;22.99;39.56;98232.66;5088275;28;20058;-53
2022/08/06 01:53:56;;;;;;;2.80;1.90;;;20.40;53.80;;;22.99;39.79;98238.94;5086432;28;20420;-54
2022/08/06 01:56:39;;;;;;;2.28;1.95;;;20.30;53.70;;;22.94;39.98;98238.78;5086917;28;20054;-53
2022/08/06 01:59:32;;;;;;;2.17;1.98;;;20.40;54.00;;;22.95;39.79;98235.03;5087391;28;20062;-50
2022/08/06 02:02:07;;;;;;;2.90;2.00;;;20.40;54.10;;;22.97;40.00;98240.19;5086805;28;20566;-50
2022/08/06 02:04:40;;;;;;;3.80;2.00;;;20.30;54.00;;;22.98;39.90;98245.41;5086545;28;20062;-49
2022/08/06 02:07:14;;;;;;;3.95;2.20;;;20.30;54.10;;;22.97;39.77;98246.47;5086338;28;20341;-52
2022/08/06 02:10:05;;;;;;;2.17;1.98;;;20.30;54.10;;;22.93;39.66;98252.56;5086459;28;20334;-50
2022/08/06 02:12:36;;;;;;;3.05;1.80;;;20.30;54.40;;;22.89;40.15;98246.75;5086901;28;20058;-53
2022/08/06 02:15:23;;;;;;;2.90;1.88;;;20.30;54.60;;;22.92;39.81;98240.06;5087766;28;20044;-53
2022/08/06 02:18:14;;;;;;;3.60;1.85;;;20.20;54.90;;;22.88;40.14;98244.28;5084171;28;20130;-51
2022/08/06 02:21:07;;;;;;;7.10;2.00;;;20.20;54.80;;;22.76;40.27;98239.63;5086867;28;20050;-54
2022/08/06 02:23:57;;;;;;;3.40;2.10;;;20.10;55.20;;;22.69;40.47;98233.41;5086612;28;20695;-55
2022/08/06 02:26:27;;;;;;;2.45;2.05;;;20.00;55.40;;;22.60;40.56;98241.03;5088078;28;20044;-50
2022/08/06 02:29:04;;;;;;;3.47;2.35;;;20.00;55.60;;;22.56;40.88;98226.22;5087149;28;20047;-52
2022/08/06 02:31:43;;;;;;;2.20;2.00;;;19.90;55.80;;;22.54;40.99;98222.91;5085972;28;20052;-51
2022/08/06 02:34:20;;;;;;;2.55;2.30;;;19.90;56.00;;;22.54;41.04;98222.91;5086301;28;20067;-54
2022/08/06 02:37:26;;;;;;;2.17;1.88;;;19.90;55.90;;;22.61;40.74;98220.97;5086685;28;20484;-50
2022/08/06 02:40:24;;;;;;;2.78;2.15;;;19.90;55.90;;;22.58;41.17;98229.56;5085507;28;20070;-52
2022/08/06 02:43:02;;;;;;;3.25;2.95;;;19.90;56.20;;;22.53;40.73;98225.88;5084443;28;20262;-52
2022/08/06 02:46:13;;;;;;;4.35;2.47;;;19.90;55.90;;;22.48;40.97;98231.13;5086115;28;20051;-53
2022/08/06 02:48:58;;;;;;;3.60;2.40;;;19.80;56.40;;;22.43;41.10;98237.25;5087382;28;20624;-50
2022/08/06 02:51:34;;;;;;;2.83;2.45;;;19.80;56.80;;;22.41;41.40;98232.03;5068157;28;20060;-55
2022/08/06 02:54:49;;;;;;;3.15;1.90;;;19.80;56.60;;;22.51;41.06;98231.53;5085603;28;20052;-52
2022/08/06 02:57:24;;;;;;;2.53;2.30;;;19.90;56.90;;;22.47;41.35;98243.88;5085284;28;20053;-53
2022/08/06 02:59:59;;;;;;;2.30;2.10;;;19.90;56.80;;;22.48;41.65;98237.38;5085570;28;20242;-51
2022/08/06 03:02:32;;;;;;;2.25;2.05;;;19.90;56.50;;;22.53;41.44;98236.72;5084442;28;20063;-50
2022/08/06 03:05:03;;;;;;;4.20;2.33;;;20.00;56.50;;;22.55;41.24;98240.88;5086489;28;20056;-51
2022/08/06 03:07:40;;;;;;;3.45;2.40;;;20.00;56.20;;;22.56;41.22;98237.09;5084285;28;20070;-53
2022/08/06 03:10:11;;;;;;;2.95;2.20;;;19.90;56.30;;;22.60;41.57;98240.19;5085333;28;20051;-53
2022/08/06 03:12:41;;;;;;;3.13;2.35;;;19.90;56.40;;;22.52;41.76;98246.72;5085280;28;20060;-54
2022/08/06 03:15:10;;;;;;;2.70;2.50;;;19.90;56.60;;;22.49;41.64;98240.91;5084295;28;20048;-53
2022/08/06 03:18:00;;;;;;;2.40;2.20;;;19.90;56.70;;;22.47;41.52;98241.16;5084768;28;20052;-53
2022/08/06 03:20:34;;;;;;;2.90;2.00;;;19.80;57.00;;;22.46;41.84;98252.22;5084864;28;20066;-52
2022/08/06 03:23:11;;;;;;;2.55;2.35;;;19.80;56.80;;;22.44;41.78;98247.03;5085794;28;20067;-52
2022/08/06 03:25:40;;;;;;;2.80;2.13;;;19.80;57.00;;;22.43;41.68;98253.53;5082598;28;20230;-50
2022/08/06 03:28:11;;;;;;;4.40;2.88;;;19.80;57.00;;;22.40;41.58;98253.94;5085501;28;20044;-53
2022/08/06 03:30:48;;;;;;;3.05;2.28;;;19.80;57.00;;;22.39;42.03;98255.84;5089196;28;20058;-52
2022/08/06 03:33:23;;;;;;;2.70;2.40;;;19.80;57.00;;;22.41;42.06;98250.16;5089050;28;20054;-54
2022/08/06 03:36:12;;;;;;;5.05;2.50;;;19.80;57.00;;;22.42;41.60;98262.69;5090995;28;20060;-54
2022/08/06 03:38:54;;;;;;;2.63;2.25;;;19.80;56.90;;;22.41;42.08;98259.16;5089846;28;20073;-49
2022/08/06 03:41:25;;;;;;;4.53;2.20;;;19.80;57.70;;;22.35;42.30;98264.63;5089648;28;20046;-51
2022/08/06 03:44:02;;;;;;;5.00;2.65;;;19.70;57.70;;;22.29;41.92;98257.38;5088692;28;20622;-50
2022/08/06 03:46:47;;;;;;;3.25;2.72;;;19.60;57.50;;;22.26;42.01;98265.97;5090228;28;20039;-52
2022/08/06 03:49:23;;;;;;;;;;;19.60;57.80;;;22.47;41.49;98286.44;5089754;28;20246;-51
2022/08/06 03:52:10;;;;;;;2.58;2.30;;;19.60;58.60;;;22.28;41.98;98280.97;5088591;28;19942;-52
2022/08/06 03:54:48;;;;;;;3.90;2.60;;;19.50;58.20;;;22.23;42.72;98280.75;5088946;28;20074;-50
2022/08/06 03:57:30;;;;;;;3.28;2.35;;;19.50;58.20;;;22.27;42.20;98279.28;5088544;28;20052;-51
2022/08/06 04:00:16;;;;;;;3.97;2.40;;;19.60;58.10;;;22.26;42.19;98283.06;5088536;28;20063;-51
2022/08/06 04:02:58;;;;;;;2.80;2.40;;;19.60;57.90;;;22.23;42.36;98286.19;5089355;28;20043;-51
2022/08/06 04:05:32;;;;;;;2.47;2.13;;;19.60;58.10;;;22.21;42.44;98291.81;5089493;28;20378;-53
2022/08/06 04:08:05;;;;;;;2.70;2.40;;;19.60;58.10;;;22.19;42.81;98284.97;5087306;28;20231;-52
2022/08/06 04:10:41;;;;;;;4.50;2.83;;;19.60;58.20;;;22.20;42.58;98289.34;5087873;28;20062;-52
2022/08/06 04:13:26;;;;;;;5.28;2.58;;;19.60;58.50;;;22.18;42.53;98289.56;5088608;28;20066;-53
2022/08/06 04:16:15;;;;;;;2.88;2.40;;;19.50;58.50;;;22.18;42.92;98292.28;5088855;28;20054;-49
2022/08/06 04:19:05;;;;;;;2.85;2.35;;;19.60;58.40;;;22.15;42.81;98292.72;5087901;28;20062;-54
2022/08/06 04:21:36;;;;;;;2.83;2.08;;;19.50;58.50;;;22.10;42.77;98294.41;5089193;28;20052;-53
2022/08/06 04:24:25;;;;;;;3.55;2.33;;;19.50;58.70;;;22.03;43.29;98289.06;5089101;28;20113;-54
2022/08/06 04:27:04;;;;;;;3.65;2.38;;;19.40;58.90;;;21.96;43.12;98288.25;5088718;28;20044;-50
2022/08/06 04:29:38;;;;;;;3.15;2.55;;;19.40;59.30;;;21.90;43.29;98294.56;5087763;28;20040;-52
2022/08/06 04:32:26;;;;;;;4.40;2.35;;;19.20;59.30;;;21.82;43.38;98304.59;5088312;28;20056;-54
2022/08/06 04:35:05;;;;;;;2.25;2.05;;;19.20;59.40;;;21.81;43.51;98299.41;5087854;28;20056;-53
2022/08/06 04:37:54;;;;;;;4.57;2.70;;;19.20;59.40;;;21.79;43.67;98312.31;5088688;28;20596;-54
2022/08/06 04:40:28;;;;;;;3.15;2.40;;;19.30;59.40;;;21.77;43.56;98311.72;5102632;28;20052;-49
2022/08/06 04:43:10;;;;;;;5.43;2.67;;;19.20;59.40;;;21.75;43.38;98306.53;5089434;28;20052;-51
2022/08/06 04:45:41;;;;;;;3.03;2.42;;;19.10;59.70;;;21.62;43.81;98307.44;5088867;28;20062;-54
2022/08/06 04:48:30;;;;;;;3.92;3.20;;;19.00;60.20;;;21.56;44.19;98315.59;5089170;28;20493;-53
2022/08/06 04:51:07;;;;;;;4.90;2.45;;;19.00;60.30;;;21.49;44.46;98320.22;5088729;28;20056;-50
2022/08/06 04:53:44;;;;;;;5.95;2.60;;;18.90;61.00;;;21.46;44.21;98318.78;5088922;28;20048;-52
2022/08/06 04:56:24;;;;;;;5.03;2.35;;;18.80;61.10;;;21.38;44.34;98313.53;5089260;28;20044;-49
2022/08/06 04:59:05;;;;;;;4.45;2.75;;;18.80;61.70;;;21.35;44.80;98322.94;5089432;28;20350;-50
2022/08/06 05:01:36;;;;;;;3.42;2.75;;;18.80;61.20;;;21.35;44.75;98330.22;5089764;28;20056;-53
2022/08/06 05:04:24;;;;;;;3.00;2.60;;;18.90;61.10;;;21.35;44.63;98328.34;5089022;28;20051;-52
2022/08/06 05:07:20;;;;;;;5.15;2.40;;;18.90;61.10;;;21.36;44.75;98337.31;5087219;28;20039;-52
2022/08/06 05:09:50;;;;;;;4.22;2.60;;;18.80;61.90;;;21.32;44.80;98339.59;5088875;28;20056;-52
2022/08/06 05:12:38;;;;;;;3.42;2.58;;;18.70;61.90;;;21.31;44.92;98343.38;5087143;28;20052;-52
2022/08/06 05:15:32;;;;;;;4.07;2.47;;;18.70;62.20;;;21.35;44.80;98352.72;5088557;28;20055;-52
2022/08/06 05:18:13;;;;;;;3.72;2.70;;;18.80;62.80;;;21.35;44.97;98347.31;5086679;28;20051;-53
2022/08/06 05:21:03;;;;;;;3.58;2.63;;;18.80;62.50;;;21.35;45.25;98343.78;5087037;28;20051;-51
2022/08/06 05:23:44;;;;;;;5.07;3.00;;;18.90;62.20;;;21.37;45.22;98357.94;5088263;28;20063;-49
2022/08/06 05:26:13;;;;;;;3.85;2.70;;;18.80;62.00;;;21.33;45.19;98352.09;5087397;28;20044;-49
2022/08/06 05:28:53;;;;;;;3.08;2.75;;;18.80;62.10;;;21.36;45.33;98356.25;5086680;28;20050;-50
2022/08/06 05:31:35;;;;;;;3.58;2.72;;;18.90;62.20;;;21.41;44.89;98357.28;5088182;28;20058;-51
2022/08/06 05:34:10;;;;;;;2.80;2.30;;;18.90;62.30;;;21.41;45.15;98367.28;5089068;28;20056;-53
2022/08/06 05:36:39;;;;;;;3.75;2.58;;;18.90;62.40;;;21.48;45.11;98370.00;5088149;28;20040;-52
2022/08/06 05:39:10;;;;;;;4.65;3.30;;;19.00;61.90;;;21.47;44.82;98368.34;5088396;28;20245;-52
2022/08/06 05:41:58;;;;;;;3.08;2.47;;;19.00;61.60;;;21.49;44.74;98372.50;5087981;28;20047;-50
2022/08/06 05:44:27;;;;;;;3.75;2.58;;;19.00;61.60;;;21.50;45.08;98365.19;5088657;28;20048;-52
2022/08/06 05:47:04;;;;;;;5.05;3.42;;;19.10;61.90;;;21.56;45.04;98369.78;5087660;28;20360;-50
2022/08/06 05:49:49;;;;;;;4.03;2.47;;;19.20;61.70;;;21.66;45.16;98367.44;5085890;28;20048;-51
2022/08/06 05:52:26;;;;;;;3.47;2.70;;;19.30;61.50;;;21.66;44.61;98369.31;5087832;28;20078;-51
2022/08/06 05:55:08;;;;;;;3.80;3.40;;;19.20;61.70;;;21.59;44.71;98367.44;5088665;28;20715;-52
2022/08/06 05:58:01;;;;;;;4.00;2.50;;;19.20;60.80;;;21.66;44.84;98372.03;5085767;28;20064;-47
2022/08/06 06:00:36;;;;;;;5.03;2.73;;;19.20;60.80;;;21.69;44.91;98372.41;5084879;28;20058;-54
2022/08/06 06:03:16;;;;;;;3.35;2.80;;;19.30;61.00;;;21.71;44.61;98377.63;5070556;28;20282;-48
2022/08/06 06:05:59;;;;;;;3.88;2.78;;;19.30;61.00;;;21.76;45.10;98383.22;5086891;28;20054;-50
2022/08/06 06:08:43;;;;;;;4.07;2.90;;;19.40;60.90;;;21.77;45.09;98387.59;5086241;28;20050;-50
2022/08/06 06:11:27;;;;;;;3.97;2.67;;;19.40;60.40;;;21.74;44.47;98388.03;5086567;28;20048;-51
2022/08/06 06:14:38;;;;;;;5.00;2.60;;;19.40;60.20;;;21.78;44.93;98387.38;5086920;28;20400;-50
2022/08/06 06:17:33;;;;;;;5.03;2.70;;;19.40;60.80;;;21.88;44.79;98388.81;5085048;28;20048;-54
2022/08/06 06:20:20;;;;;;;3.50;2.80;;;19.60;59.90;;;21.88;44.85;98395.06;5085025;28;20407;-49
2022/08/06 06:23:35;;;;;;;5.07;2.45;;;19.60;59.70;;;21.92;43.94;98390.84;5086738;28;20797;-51
2022/08/06 06:26:13;;;;;;;6.75;2.50;;;19.70;58.60;;;21.91;43.92;98397.34;5085899;28;20051;-51
2022/08/06 06:29:20;;;;;;;3.30;2.85;;;19.70;58.60;;;21.91;43.81;98402.75;5087003;28;20056;-52
2022/08/06 06:33:02;;;;;;;3.75;2.60;;;19.60;58.40;;;22.00;43.45;98400.63;5085541;28;20068;-53
2022/08/06 06:35:50;;;;;;;3.95;3.03;;;19.70;57.80;;;22.06;43.69;98402.47;5062394;28;20056;-50
2022/08/06 06:38:51;;;;;;;4.97;2.40;;;19.70;57.70;;;22.14;43.36;98406.81;5086842;28;20048;-51
2022/08/06 06:41:45;;;;;;;3.03;2.50;;;19.80;57.20;;;22.16;42.92;98407.44;5085687;28;20051;-53
2022/08/06 06:44:23;;;;;;;3.85;2.30;;;19.80;56.90;;;22.19;43.39;98404.28;5070182;28;20461;-51
2022/08/06 06:47:33;;;;;;;2.90;2.60;;;19.80;57.30;;;22.20;42.61;98412.19;5086244;28;20050;-52
2022/08/06 06:50:30;;;;;;;4.00;2.40;;;19.90;56.00;;;22.15;42.34;98409.31;5084004;28;20051;-49
2022/08/06 06:53:03;;;;;;;2.45;2.22;;;19.90;56.00;;;22.14;42.82;98412.22;5086339;28;20245;-48
2022/08/06 06:55:51;;;;;;;2.55;2.25;;;19.90;56.20;;;22.18;42.72;98411.59;5085826;28;20044;-49
2022/08/06 06:58:39;;;;;;;4.13;2.20;;;19.90;55.70;;;22.20;42.36;98411.38;5084846;28;20058;-47
2022/08/06 07:01:17;;;;;;;4.45;2.58;;;20.00;55.50;;;22.19;42.12;98415.13;5085351;28;20055;-51
2022/08/06 07:03:58;;;;;;;3.05;2.22;;;20.00;55.80;;;22.21;42.37;98419.28;5085532;28;20047;-52
2022/08/06 07:06:30;;;;;;;4.53;3.35;;;20.00;56.00;;;22.28;42.53;98418.47;5087425;28;20066;-51
2022/08/06 07:09:19;;;;;;;4.20;2.42;;;20.10;56.10;;;22.29;42.12;98418.22;5084839;28;20048;-50
2022/08/06 07:12:09;;;;;;;2.33;2.10;;;20.00;55.60;;;22.27;41.52;98431.16;5084653;28;20059;-53
2022/08/06 07:14:52;;;;;;;4.90;3.28;;;19.90;55.10;;;22.23;42.15;98424.50;5070848;28;20056;-49
2022/08/06 07:17:27;;;;;;;6.80;2.55;;;19.90;55.50;;;22.25;42.21;98422.41;5084005;28;20052;-48
2022/08/06 07:20:30;;;;;;;2.60;2.35;;;19.90;55.60;;;22.33;42.15;98422.19;5084599;28;20354;-51
2022/08/06 07:23:03;;;;;;;4.50;2.10;;;20.00;55.40;;;22.39;42.06;98428.59;5085657;28;20207;-49
2022/08/06 07:25:54;;;;;;;3.35;2.25;;;20.10;55.70;;;22.49;41.84;98428.97;5086148;28;20059;-50
2022/08/06 07:28:27;;;;;;;7.72;2.55;;;20.20;55.40;;;22.54;41.72;98426.41;5084803;28;20050;-49
2022/08/06 07:30:59;;;;;;;2.75;2.35;;;20.30;55.20;;;22.59;41.85;98426.59;5085477;28;20048;-48
2022/08/06 07:33:37;;;;;;;5.10;2.88;;;20.30;55.20;;;22.64;41.80;98427.81;5084842;28;20502;-53
2022/08/06 07:36:31;;;;;;;4.72;2.88;;;20.40;54.90;;;22.65;41.63;98433.03;5083604;28;20071;-46
2022/08/06 07:39:13;;;;;;;2.55;2.25;;;20.30;54.90;;;22.67;42.05;98427.38;5087283;28;20048;-48
2022/08/06 07:41:46;;;;;;;3.42;2.63;;;20.40;55.30;;;22.69;42.05;98434.25;5085430;28;20052;-48
2022/08/06 07:44:38;;;;;;;2.13;1.92;;;20.50;55.40;;;22.82;41.65;98436.03;5085412;28;20043;-52
2022/08/06 07:47:30;;;;;;;3.70;2.92;;;20.50;55.10;;;22.94;41.51;98428.81;5083872;28;20357;-48
2022/08/06 07:50:20;;;;;;;3.10;2.63;;;20.60;54.70;;;22.96;41.12;98431.31;5084833;28;20071;-50
2022/08/06 07:52:55;;;;;;;2.95;2.25;;;20.70;54.30;;;22.97;41.31;98433.81;5085504;28;20056;-52
2022/08/06 07:55:27;;;;;;;4.70;3.00;;;20.80;54.30;;;23.05;41.18;98426.47;5084878;28;20056;-51
2022/08/06 07:58:09;;;;;;;3.13;2.83;;;20.80;54.00;;;23.10;41.54;98432.06;5084748;28;20048;-50
2022/08/06 08:00:41;;;;;;;3.55;2.45;;;20.80;54.00;;;23.13;40.94;98418.88;5087484;28;20273;-50
2022/08/06 08:06:25;;;;;;;3.50;2.47;;;21.00;53.40;;;23.23;40.32;98421.06;5092481;28;20070;-51
2022/08/06 08:09:10;;;;;;;5.10;2.78;;;21.00;52.40;;;23.27;40.39;98416.84;5094935;28;20372;-50
2022/08/06 08:11:43;;;;;;;4.45;2.38;;;21.00;52.80;;;23.29;40.31;98419.34;5087612;28;20055;-52
2022/08/06 08:14:30;;;;;;;3.70;2.67;;;21.10;52.60;;;23.41;40.39;98417.53;5094757;28;20050;-50
2022/08/06 08:16:59;;;;;;;4.60;2.30;;;21.20;52.80;;;23.53;39.64;98412.19;5097547;28;20027;-49
2022/08/06 08:19:31;;;;;;;7.13;3.33;;;21.30;52.00;;;23.53;39.69;98418.44;5100352;28;20077;-51
2022/08/06 08:22:15;;;;;;;2.72;2.47;;;21.40;51.70;;;23.61;39.40;98417.31;5110405;28;20039;-50
2022/08/06 08:24:46;;;;;;;2.60;2.35;;;21.40;50.20;;;23.66;38.70;98417.47;5109528;28;20124;-48
2022/08/06 08:27:21;;;;;;;2.75;2.08;;;21.50;50.10;;;23.64;38.57;98416.88;5110098;28;20634;-48
2022/08/06 08:29:52;;;;;;;2.80;1.98;;;21.40;49.90;;;23.64;37.93;98413.34;5109852;28;20234;-50
2022/08/06 08:32:24;;;;;;;3.58;2.13;;;21.40;49.30;;;23.64;37.77;98410.63;5109803;28;20090;-48
2022/08/06 08:34:53;;;;;;;5.13;2.13;;;21.40;48.50;;;23.57;38.16;98419.69;5109516;28;20531;-50
2022/08/06 08:37:24;;;;;;;2.20;2.00;;;21.30;49.30;;;23.63;37.74;98408.94;5109556;28;20055;-52
2022/08/06 08:39:52;;;;;;;3.30;1.88;;;21.40;48.80;;;23.57;37.82;98406.09;5109271;28;20046;-52
2022/08/06 08:42:46;;;;;;;2.70;1.70;;;21.30;48.80;;;23.66;37.69;98401.16;5108037;28;20047;-47
2022/08/06 08:45:15;;;;;;;3.38;1.70;;;21.40;46.60;;;23.66;37.52;98405.78;5108068;28;20053;-51
2022/08/06 08:47:52;;;;;;;2.88;1.70;;;21.40;48.20;;;23.67;37.37;98412.84;5108314;28;20055;-50
2022/08/06 08:50:29;;;;;;;1.75;1.60;;;21.50;47.50;;;23.71;36.85;98414.06;5110463;28;20061;-47
2022/08/06 08:53:11;;;;;;;3.35;1.98;;;21.40;47.10;;;23.70;36.84;98407.81;5109921;28;20062;-50
2022/08/06 08:55:42;;;;;;;4.22;1.70;;;21.40;46.70;;;23.67;36.85;98412.84;5106979;28;20384;-49
2022/08/06 08:58:31;;;;;;;3.72;1.67;;;21.40;47.40;;;23.73;37.12;98414.66;5108464;28;20068;-50
2022/08/06 09:01:12;;;;;;;2.67;1.98;;;21.40;47.80;;;23.78;36.49;98412.13;5108563;28;20062;-51
2022/08/06 09:04:03;;;;;;;3.47;1.92;;;21.50;47.30;;;23.84;36.43;98404.97;5109200;28;20361;-49
2022/08/06 09:06:32;;;;;;;2.88;1.80;;;21.50;46.30;;;23.79;36.14;98411.09;5108672;28;20043;-49
2022/08/06 09:09:07;;;;;;;2.08;1.73;;;21.60;46.50;;;23.84;35.66;98413.13;5108984;28;20065;-51
2022/08/06 09:11:43;;;;;;;3.88;1.73;;;21.60;46.00;;;23.87;35.43;98415.38;5109012;28;20049;-51
2022/08/06 09:14:31;;;;;;;3.35;1.67;;;21.60;45.20;;;23.88;35.23;98422.47;5107941;28;20659;-51
2022/08/06 09:17:03;;;;;;;2.67;1.80;;;21.60;45.00;;;23.87;35.03;98428.97;5107643;28;20055;-50
2022/08/06 09:19:32;;;;;;;2.55;1.40;;;21.70;44.50;;;23.90;35.17;98429.31;5108511;28;20047;-50
2022/08/06 09:22:05;;;;;;;2.20;1.90;;;21.70;44.70;;;23.92;35.14;98424.53;5107897;28;20055;-52
2022/08/06 09:24:37;;;;;;;2.03;1.70;;;21.70;44.80;;;23.90;34.78;98431.22;5109278;28;20055;-50
2022/08/06 09:27:09;;;;;;;3.30;1.50;;;21.60;44.30;;;23.84;34.50;98427.53;5105370;28;20059;-47
2022/08/06 09:29:59;;;;;;;4.35;2.50;;;21.60;43.70;;;23.89;34.67;98424.16;5109027;28;20048;-48
2022/08/06 09:32:47;;;;;;;1.67;1.58;;;21.60;44.10;;;23.98;34.52;98431.75;5109011;28;20261;-47
2022/08/06 09:35:30;;;;;;;2.65;2.08;;;21.70;43.90;;;24.01;34.32;98427.75;5107076;28;20274;-49
2022/08/06 09:38:15;;;;;;;2.08;1.83;;;21.80;43.10;;;24.06;34.30;98427.91;5108179;28;20039;-51
2022/08/06 09:41:09;;;;;;;2.75;1.50;;;21.80;43.10;;;24.16;34.67;98419.19;5106307;28;20047;-50
2022/08/06 09:43:45;;;;;;;2.35;2.00;;;21.90;42.70;;;24.21;33.97;98424.75;5106936;28;20059;-51
2022/08/06 09:46:47;;;;;;;3.38;1.75;;;22.00;43.10;;;24.31;34.26;98424.19;5107645;28;20249;-51
2022/08/06 09:49:18;;;;;;;3.80;1.60;;;22.10;42.00;;;24.34;33.71;98423.75;5108122;28;20047;-50
2022/08/06 09:52:17;;;;;;;2.72;1.77;;;22.10;42.60;;;24.42;33.54;98419.88;5108329;28;20062;-50
2022/08/06 09:54:48;;;;;;;3.78;1.77;;;22.10;41.00;;;24.42;33.43;98420.69;5107935;28;20050;-50
2022/08/06 09:57:23;;;;;;;2.75;1.63;;;22.20;42.40;;;24.47;33.46;98420.84;5108648;28;20334;-51
2022/08/06 10:00:04;;;;;;;2.38;1.30;;;22.30;42.20;;;24.53;33.03;98416.38;5108162;28;20062;-52
2022/08/06 10:02:42;;;;;;;3.50;1.63;;;22.40;41.60;;;24.57;32.80;98417.56;5107963;27;20334;-49
2022/08/06 10:05:19;;;;;;;3.72;1.45;;;22.40;41.40;;;24.58;33.07;98427.38;5107092;28;20047;-51
2022/08/06 10:08:17;;;;;;;2.47;1.60;;;22.40;41.60;;;24.66;33.28;98418.91;5106169;28;20383;-51
2022/08/06 10:10:51;;;;;;;2.88;1.60;;;22.50;40.20;;;24.72;32.73;98423.41;5108137;28;20576;-50
2022/08/06 10:13:26;;;;;;;1.92;1.50;;;22.50;41.20;;;24.77;32.01;98425.41;5105798;28;20245;-48
2022/08/06 10:16:20;;;;;;;2.88;1.58;;;22.50;39.90;;;24.78;32.41;98424.38;5106960;28;20059;-52
2022/08/06 10:19:00;;;;;;;1.88;1.70;;;22.50;39.10;;;24.83;32.05;98423.66;5107700;28;20047;-48
2022/08/06 10:21:46;;;;;;;2.72;1.77;;;22.60;40.00;;;24.89;32.00;98418.13;5108176;28;20338;-47
2022/08/06 10:24:19;;;;;;;1.70;1.58;;;22.70;40.20;;;24.92;32.08;98423.06;5107896;28;20052;-47
2022/08/06 10:27:09;;;;;;;4.03;2.45;;;22.70;40.10;;;25.03;31.50;98423.31;5106755;28;20073;-47
2022/08/06 10:29:48;;;;;;;3.00;2.35;;;22.80;39.40;;;25.09;31.83;98419.66;5107683;28;20765;-51
2022/08/06 10:32:40;;;;;;;3.08;1.85;;;22.90;39.70;;;25.15;31.47;98421.44;5107439;28;20353;-51
2022/08/06 10:35:15;;;;;;;4.18;1.85;;;23.00;36.80;;;25.12;30.90;98422.72;5106712;28;20403;-49
2022/08/06 10:37:58;;;;;;;3.35;1.80;;;22.90;38.80;;;25.15;31.56;98419.53;5089450;28;20286;-51
2022/08/06 10:40:33;;;;;;;4.80;2.00;;;22.90;39.10;;;25.23;31.25;98417.56;5107067;28;20341;-49
2022/08/06 10:43:03;;;;;;;2.60;1.90;;;23.00;39.30;;;25.29;31.08;98425.59;5104497;28;20054;-47
2022/08/06 10:45:34;;;;;;;6.00;2.72;;;23.10;38.90;;;25.45;30.88;98415.88;5107776;28;20056;-52
2022/08/06 10:48:17;;;;;;;2.67;1.90;;;23.20;38.70;;;25.49;31.02;98427.13;5106157;28;20048;-50
2022/08/06 10:51:08;;;;;;;2.30;2.08;;;23.20;38.80;;;25.60;30.77;98423.56;5107884;28;20058;-51
2022/08/06 10:53:41;;;;;;;2.05;1.85;;;23.40;38.20;;;25.63;30.21;98419.53;5107465;28;20048;-47
2022/08/06 10:56:29;;;;;;;3.92;2.22;;;23.40;37.60;;;25.68;30.13;98406.81;5107985;28;20043;-48
2022/08/06 10:59:07;;;;;;;2.88;2.15;;;23.40;37.30;;;25.70;30.20;98414.78;5105933;28;20044;-49
2022/08/06 11:01:53;;;;;;;3.75;2.00;;;23.40;37.80;;;25.70;30.41;98410.13;5106731;28;20074;-51
2022/08/06 11:04:54;;;;;;;1.85;1.52;;;23.40;37.30;;;25.71;30.19;98409.09;5107154;28;20062;-52
2022/08/06 11:07:56;;;;;;;3.30;1.75;;;23.40;36.40;;;25.78;30.25;98405.38;5104677;28;20070;-52
2022/08/06 11:11:05;;;;;;;4.18;1.85;;;23.50;37.00;;;25.87;30.44;98404.78;5106833;28;20065;-50
2022/08/06 11:14:07;;;;;;;4.10;1.80;;;23.60;37.40;;;25.87;30.21;98407.50;5085535;28;20218;-48
2022/08/06 11:16:59;;;;;;;2.50;1.80;;;23.60;37.50;;;25.92;29.86;98399.47;5086482;28;20245;-52
2022/08/06 11:19:39;;;;;;;1.75;1.40;;;23.70;35.80;;;25.89;29.70;98399.06;5085748;28;20051;-50
2022/08/06 11:22:34;;;;;;;2.85;1.40;;;23.50;35.80;;;25.84;29.22;98402.53;5086367;28;20058;-52
2022/08/06 11:25:09;;;;;;;3.15;1.70;;;23.50;36.40;;;25.87;29.81;98399.31;5088084;28;20254;-53